createdAt,value
2022-11-22T00:01:15.228Z,9.77
2022-11-22T00:03:41.490Z,8.25
2022-11-22T00:06:07.793Z,8.60
2022-11-22T00:08:34.081Z,7.78
2022-11-22T00:11:00.376Z,8.43
2022-11-22T00:13:26.727Z,10.15
2022-11-22T00:16:00.345Z,7.97
2022-11-22T00:18:27.138Z,9.75
2022-11-22T00:20:53.386Z,9.95
2022-11-22T00:23:19.596Z,8.10
2022-11-22T00:25:46.270Z,7.68
2022-11-22T00:28:12.706Z,7.22
2022-11-22T00:30:38.978Z,9.00
2022-11-22T00:33:05.242Z,6.60
2022-11-22T00:35:31.480Z,7.45
2022-11-22T00:37:57.775Z,6.93
2022-11-22T00:40:23.996Z,7.72
2022-11-22T00:42:50.271Z,7.35
2022-11-22T00:45:16.664Z,7.47
2022-11-22T00:47:42.982Z,7.15
2022-11-22T00:50:09.674Z,9.45
2022-11-22T00:52:36.059Z,7.63
2022-11-22T00:55:02.384Z,7.43
2022-11-22T00:57:28.698Z,6.43
2022-11-22T00:59:54.938Z,5.88
2022-11-22T01:02:21.229Z,6.50
2022-11-22T01:04:47.608Z,5.88
2022-11-22T01:07:13.945Z,8.73
2022-11-22T01:09:40.259Z,6.40
2022-11-22T01:12:06.778Z,6.75
2022-11-22T01:14:33.222Z,7.18
2022-11-22T01:16:59.466Z,7.32
2022-11-22T01:19:25.714Z,6.05
2022-11-22T01:21:51.977Z,6.55
2022-11-22T01:24:18.252Z,7.68
2022-11-22T01:26:44.546Z,7.50
2022-11-22T01:29:10.882Z,5.97
2022-11-22T01:31:37.193Z,5.47
2022-11-22T01:34:04.926Z,6.22
2022-11-22T01:36:31.230Z,6.80
2022-11-22T01:38:57.518Z,7.95
2022-11-22T01:41:23.803Z,6.00
2022-11-22T01:43:50.074Z,9.82
2022-11-22T01:46:27.391Z,7.13
2022-11-22T01:48:56.624Z,6.00
2022-11-22T01:51:25.740Z,6.07
2022-11-22T01:53:53.362Z,8.07
2022-11-22T01:56:20.704Z,6.60
2022-11-22T01:58:48.881Z,6.50
2022-11-22T02:01:15.366Z,7.10
2022-11-22T02:03:44.659Z,6.65
2022-11-22T02:06:11.107Z,7.28
2022-11-22T02:08:40.534Z,6.30
2022-11-22T02:11:08.268Z,7.50
2022-11-22T02:13:36.155Z,6.20
2022-11-22T02:16:02.883Z,6.43
2022-11-22T02:18:29.337Z,9.02
2022-11-22T02:20:55.654Z,9.52
2022-11-22T02:23:40.233Z,7.90
2022-11-22T02:26:06.625Z,6.22
2022-11-22T02:28:36.752Z,8.93
2022-11-22T02:31:03.143Z,6.90
2022-11-22T02:33:29.402Z,7.72
2022-11-22T02:35:55.670Z,7.55
2022-11-22T02:38:27.139Z,7.57
2022-11-22T02:40:56.057Z,7.60
2022-11-22T02:43:24.742Z,10.93
2022-11-22T02:45:51.029Z,8.30
2022-11-22T02:48:18.321Z,8.90
2022-11-22T02:50:45.349Z,7.55
2022-11-22T02:53:11.866Z,10.77
2022-11-22T02:55:38.511Z,8.73
2022-11-22T02:58:05.888Z,7.47
2022-11-22T03:00:33.047Z,6.90
2022-11-22T03:02:59.320Z,6.90
2022-11-22T03:05:25.525Z,6.78
2022-11-22T03:07:51.870Z,6.45
2022-11-22T03:10:18.350Z,9.73
2022-11-22T03:12:44.637Z,6.78
2022-11-22T03:15:10.894Z,8.50
2022-11-22T03:17:37.171Z,9.70
2022-11-22T03:20:04.184Z,6.75
2022-11-22T03:22:30.489Z,11.57
2022-11-22T03:24:56.926Z,7.95
2022-11-22T03:27:23.174Z,6.97
2022-11-22T03:29:49.429Z,6.25
2022-11-22T03:32:15.713Z,7.22
2022-11-22T03:34:42.015Z,8.00
2022-11-22T03:37:08.262Z,9.23
2022-11-22T03:39:34.573Z,8.32
2022-11-22T03:42:00.896Z,5.18
2022-11-22T03:44:27.176Z,8.40
2022-11-22T03:46:53.448Z,7.85
2022-11-22T03:49:19.698Z,9.52
2022-11-22T03:51:46.596Z,8.05
2022-11-22T03:54:12.948Z,7.43
2022-11-22T03:56:39.232Z,8.02
2022-11-22T03:59:05.468Z,7.90
2022-11-22T04:01:31.791Z,8.65
2022-11-22T04:03:58.037Z,6.85
2022-11-22T04:06:27.266Z,7.90
2022-11-22T04:08:53.539Z,6.28
2022-11-22T04:11:21.016Z,8.20
2022-11-22T04:14:05.640Z,6.35
2022-11-22T04:16:31.941Z,8.15
2022-11-22T04:18:58.267Z,5.35
2022-11-22T04:21:36.579Z,7.88
2022-11-22T04:24:23.111Z,5.90
2022-11-22T04:26:49.563Z,6.35
2022-11-22T04:29:16.206Z,8.40
2022-11-22T04:32:00.990Z,7.50
2022-11-22T04:34:27.313Z,7.95
2022-11-22T04:36:53.643Z,5.57
2022-11-22T04:39:20.003Z,8.20
2022-11-22T04:41:46.288Z,5.88
2022-11-22T04:44:31.163Z,4.93
2022-11-22T04:46:57.519Z,6.97
2022-11-22T04:49:23.812Z,7.50
2022-11-22T04:52:08.555Z,7.10
2022-11-22T04:54:34.884Z,6.93
2022-11-22T04:57:01.109Z,9.45
2022-11-22T04:59:27.586Z,6.85
2022-11-22T05:01:54.129Z,7.55
2022-11-22T05:04:20.401Z,8.23
2022-11-22T05:06:46.882Z,7.75
2022-11-22T05:09:13.154Z,6.82
2022-11-22T05:11:39.650Z,5.45
2022-11-22T05:14:05.956Z,6.80
2022-11-22T05:16:32.236Z,4.90
2022-11-22T05:19:01.525Z,8.73
2022-11-22T05:21:28.764Z,6.38
2022-11-22T05:23:55.303Z,5.55
2022-11-22T05:26:28.946Z,4.80
2022-11-22T05:28:55.271Z,5.03
2022-11-22T05:31:23.198Z,5.20
2022-11-22T05:33:50.947Z,6.13
2022-11-22T05:36:17.585Z,6.00
2022-11-22T05:38:43.891Z,4.70
2022-11-22T05:41:11.755Z,6.22
2022-11-22T05:43:38.615Z,6.32
2022-11-22T05:46:11.866Z,6.35
2022-11-22T05:48:39.377Z,6.28
2022-11-22T05:51:06.441Z,5.15
2022-11-22T05:53:32.883Z,6.22
2022-11-22T05:56:03.166Z,6.47
2022-11-22T05:58:29.447Z,4.57
2022-11-22T06:00:55.686Z,4.70
2022-11-22T06:03:21.973Z,6.15
2022-11-22T06:05:52.290Z,4.68
2022-11-22T06:08:18.552Z,4.35
2022-11-22T06:10:44.812Z,6.85
2022-11-22T06:13:11.103Z,5.80
2022-11-22T06:15:37.393Z,5.97
2022-11-22T06:18:03.692Z,6.55
2022-11-22T06:20:29.938Z,4.07
2022-11-22T06:22:58.063Z,7.82
2022-11-22T06:25:24.661Z,4.73
2022-11-22T06:27:50.990Z,8.65
2022-11-22T06:30:17.288Z,5.05
2022-11-22T06:32:43.563Z,6.25
2022-11-22T06:35:09.853Z,8.35
2022-11-22T06:37:36.125Z,4.88
2022-11-22T06:40:03.156Z,6.65
2022-11-22T06:42:29.458Z,6.55
2022-11-22T06:44:55.694Z,8.27
2022-11-22T06:47:21.964Z,7.97
2022-11-22T06:49:48.342Z,5.45
2022-11-22T06:52:14.638Z,5.35
2022-11-22T06:54:40.965Z,6.07
2022-11-22T06:57:07.277Z,5.38
2022-11-22T06:59:34.637Z,5.18
2022-11-22T07:02:06.349Z,7.30
2022-11-22T07:04:33.008Z,6.38
2022-11-22T07:06:59.330Z,5.55
2022-11-22T07:09:25.627Z,4.72
2022-11-22T07:11:51.960Z,5.30
2022-11-22T07:14:18.342Z,5.18
2022-11-22T07:16:45.002Z,5.22
2022-11-22T07:19:11.298Z,4.80
2022-11-22T07:21:37.859Z,7.70
2022-11-22T07:24:04.943Z,5.18
2022-11-22T07:26:31.214Z,4.32
2022-11-22T07:28:57.502Z,5.60
2022-11-22T07:31:23.774Z,2.63
2022-11-22T07:33:50.086Z,5.88
2022-11-22T07:36:17.610Z,5.93
2022-11-22T07:38:44.293Z,5.20
2022-11-22T07:41:10.591Z,5.22
2022-11-22T07:43:36.922Z,5.65
2022-11-22T07:46:04.740Z,4.80
2022-11-22T07:48:31.046Z,7.28
2022-11-22T07:50:57.355Z,8.40
2022-11-22T07:53:24.151Z,4.97
2022-11-22T07:55:50.537Z,3.88
2022-11-22T07:58:16.829Z,3.47
2022-11-22T08:00:43.137Z,3.38
2022-11-22T08:03:09.455Z,5.47
2022-11-22T08:05:35.790Z,7.07
2022-11-22T08:08:02.204Z,5.15
2022-11-22T08:10:28.626Z,3.95
2022-11-22T08:12:57.881Z,6.28
2022-11-22T08:15:24.155Z,3.85
2022-11-22T08:17:50.482Z,4.78
2022-11-22T08:20:16.791Z,4.63
2022-11-22T08:22:43.080Z,6.20
2022-11-22T08:25:12.549Z,4.22
2022-11-22T08:27:42.705Z,4.00
2022-11-22T08:30:09.733Z,3.65
2022-11-22T08:32:36.267Z,5.45
2022-11-22T08:35:02.646Z,4.75
2022-11-22T08:37:29.123Z,4.05
2022-11-22T08:39:55.895Z,6.20
2022-11-22T08:42:22.184Z,6.30
2022-11-22T08:44:48.431Z,3.47
2022-11-22T08:47:14.707Z,4.53
2022-11-22T08:49:41.075Z,6.00
2022-11-22T08:52:07.283Z,4.20
2022-11-22T08:54:37.494Z,3.45
2022-11-22T08:57:04.326Z,5.18
2022-11-22T08:59:30.944Z,6.72
2022-11-22T09:01:57.458Z,5.05
2022-11-22T09:04:23.803Z,3.88
2022-11-22T09:09:43.013Z,3.15
2022-11-22T09:12:09.515Z,3.40
2022-11-22T09:14:36.107Z,3.78
2022-11-22T09:17:02.350Z,4.97
2022-11-22T09:19:30.108Z,4.50
2022-11-22T09:21:56.871Z,3.80
2022-11-22T09:24:23.142Z,3.78
2022-11-22T09:26:49.405Z,3.38
2022-11-22T09:29:15.976Z,3.45
2022-11-22T09:31:42.633Z,3.33
2022-11-22T09:34:08.937Z,4.75
2022-11-22T09:36:35.209Z,5.30
2022-11-22T09:39:01.488Z,3.45
2022-11-22T09:42:06.667Z,3.15
2022-11-22T09:44:50.057Z,3.60
2022-11-22T09:47:54.771Z,3.42
2022-11-22T09:50:39.503Z,4.78
2022-11-22T09:53:10.778Z,3.90
2022-11-22T09:55:39.515Z,2.45
2022-11-22T09:58:24.051Z,2.55
2022-11-22T10:00:52.423Z,2.35
2022-11-22T10:03:18.962Z,2.05
2022-11-22T10:05:50.454Z,4.88
2022-11-22T10:08:32.032Z,2.70
2022-11-22T10:10:58.793Z,3.17
2022-11-22T10:13:33.273Z,2.13
2022-11-22T10:16:07.265Z,2.95
2022-11-22T10:18:43.382Z,2.70
2022-11-22T10:21:11.413Z,2.17
2022-11-22T10:23:37.691Z,2.03
2022-11-22T10:26:24.257Z,2.92
2022-11-22T10:28:53.681Z,4.30
2022-11-22T10:31:29.142Z,2.72
2022-11-22T10:34:10.056Z,2.60
2022-11-22T10:36:51.616Z,3.25
2022-11-22T10:39:32.946Z,2.88
2022-11-22T10:42:09.108Z,2.22
2022-11-22T10:44:38.394Z,2.85
2022-11-22T10:47:11.581Z,2.22
2022-11-22T10:49:56.187Z,2.80
2022-11-22T10:52:25.322Z,3.00
2022-11-22T10:54:56.105Z,3.65
2022-11-22T10:57:22.294Z,2.60
2022-11-22T11:00:03.285Z,1.88
2022-11-22T11:02:49.770Z,3.03
2022-11-22T11:05:20.897Z,2.88
2022-11-22T11:07:56.498Z,2.25
2022-11-22T11:10:34.510Z,2.47
2022-11-22T11:13:16.538Z,3.58
2022-11-22T11:15:47.277Z,2.15
2022-11-22T11:18:19.293Z,1.55
2022-11-22T11:20:47.675Z,2.35
2022-11-22T11:23:16.065Z,1.25
2022-11-22T11:25:43.835Z,3.03
2022-11-22T11:28:10.189Z,2.63
2022-11-22T11:30:40.564Z,1.30
2022-11-22T11:33:16.143Z,0.77
2022-11-22T11:35:44.140Z,2.00
2022-11-22T11:38:26.629Z,1.95
2022-11-22T11:40:52.938Z,2.03
2022-11-22T11:43:20.256Z,2.35
2022-11-22T11:45:47.046Z,1.95
2022-11-22T11:48:26.217Z,1.92
2022-11-22T11:50:52.473Z,1.65
2022-11-22T11:53:25.495Z,4.28
2022-11-22T11:55:52.175Z,2.00
2022-11-22T11:58:20.441Z,1.65
2022-11-22T12:00:46.960Z,2.53
2022-11-22T12:03:15.568Z,1.20
2022-11-22T12:05:41.808Z,1.83
2022-11-22T12:08:28.546Z,1.35
2022-11-22T12:11:03.197Z,2.50
2022-11-22T12:13:37.130Z,1.60
2022-11-22T12:16:14.495Z,1.08
2022-11-22T12:18:43.473Z,2.70
2022-11-22T12:21:17.934Z,0.95
2022-11-22T12:23:52.996Z,1.50
2022-11-22T12:26:20.075Z,1.10
2022-11-22T12:28:46.658Z,2.38
2022-11-22T12:31:34.382Z,2.42
2022-11-22T12:34:03.054Z,1.67
2022-11-22T12:36:41.455Z,1.90
2022-11-22T12:39:12.170Z,3.17
2022-11-22T12:41:40.189Z,1.98
2022-11-22T12:44:11.979Z,2.45
2022-11-22T12:46:40.270Z,2.45
2022-11-22T12:49:29.879Z,1.45
2022-11-22T12:52:14.699Z,2.45
2022-11-22T12:54:44.398Z,2.45
2022-11-22T12:57:17.999Z,1.13
2022-11-22T12:59:48.184Z,1.63
2022-11-22T13:02:14.392Z,1.50
2022-11-22T13:04:59.410Z,1.40
2022-11-22T13:07:48.905Z,2.50
2022-11-22T13:10:31.875Z,2.30
2022-11-22T13:12:58.833Z,1.13
2022-11-22T13:15:29.589Z,2.65
2022-11-22T13:17:55.999Z,2.47
2022-11-22T13:20:25.567Z,1.02
2022-11-22T13:23:00.640Z,2.25
2022-11-22T13:25:30.174Z,1.95
2022-11-22T13:27:59.471Z,1.02
2022-11-22T13:30:26.782Z,1.25
2022-11-22T13:32:54.576Z,1.05
2022-11-22T13:35:27.041Z,2.67
2022-11-22T13:37:55.434Z,0.75
2022-11-22T13:40:24.490Z,0.47
2022-11-22T13:43:13.764Z,0.93
2022-11-22T13:45:46.140Z,1.25
2022-11-22T13:48:12.406Z,1.27
2022-11-22T13:50:41.567Z,0.60
2022-11-22T13:53:22.204Z,0.60
2022-11-22T13:55:48.463Z,0.73
2022-11-22T13:58:24.994Z,0.50
2022-11-22T14:00:51.962Z,0.85
2022-11-22T14:03:19.572Z,0.65
2022-11-22T14:05:50.314Z,1.17
2022-11-22T14:08:36.898Z,2.80
2022-11-22T14:11:10.039Z,1.55
2022-11-22T14:13:59.175Z,1.15
2022-11-22T14:16:39.918Z,1.05
2022-11-22T14:19:09.478Z,1.27
2022-11-22T14:21:45.820Z,0.57
2022-11-22T14:24:12.052Z,0.47
2022-11-22T14:26:41.644Z,1.45
2022-11-22T14:29:23.107Z,1.70
2022-11-22T14:31:55.213Z,1.13
2022-11-22T14:34:29.070Z,1.60
2022-11-22T14:37:10.737Z,1.45
2022-11-22T14:39:53.543Z,0.88
2022-11-22T14:42:39.974Z,1.08
2022-11-22T14:45:12.360Z,0.93
2022-11-22T14:47:39.649Z,1.25
2022-11-22T14:50:12.897Z,0.75
2022-11-22T14:52:39.191Z,1.25
2022-11-22T14:55:06.432Z,1.13
2022-11-22T14:57:33.959Z,0.40
2022-11-22T15:00:19.906Z,1.17
2022-11-22T15:03:04.730Z,1.00
2022-11-22T15:09:16.122Z,1.95
2022-11-22T15:09:21.648Z,1.17
2022-11-22T15:12:03.010Z,1.00
2022-11-22T15:14:46.468Z,1.85
2022-11-22T15:57:24.489Z,0.85
2022-11-22T15:59:53.670Z,1.90
2022-11-22T16:02:22.407Z,0.95
2022-11-22T16:06:10.755Z,0.80
2022-11-22T16:07:40.765Z,1.67
2022-11-22T16:10:16.649Z,1.17
2022-11-22T16:12:43.038Z,1.30
2022-11-22T16:15:42.074Z,1.30
2022-11-22T16:18:11.022Z,0.93
2022-11-22T16:20:38.640Z,1.55
2022-11-22T16:23:10.694Z,0.88
2022-11-22T16:25:38.273Z,1.35
2022-11-22T16:28:23.038Z,1.65
2022-11-22T16:30:49.310Z,0.90
2022-11-22T16:33:15.703Z,1.05
2022-11-22T16:35:42.002Z,0.75
2022-11-22T16:38:08.272Z,2.33
2022-11-22T16:40:42.189Z,1.77
2022-11-22T16:43:19.415Z,1.33
2022-11-22T16:45:45.683Z,1.73
2022-11-22T16:48:30.900Z,1.13
2022-11-22T16:51:01.626Z,1.80
2022-11-22T16:53:34.013Z,1.08
2022-11-22T16:56:00.247Z,1.05
2022-11-22T16:58:28.278Z,2.60
2022-11-22T17:00:54.900Z,1.23
2022-11-22T17:03:22.661Z,1.23
2022-11-22T17:05:49.130Z,1.92
2022-11-22T17:08:16.861Z,1.73
2022-11-22T17:10:45.603Z,2.28
2022-11-22T17:13:21.167Z,1.40
2022-11-22T17:15:47.867Z,2.77
2022-11-22T17:18:14.639Z,2.78
2022-11-22T17:20:40.934Z,1.65
2022-11-22T17:23:10.041Z,1.33
2022-11-22T17:25:36.359Z,2.58
2022-11-22T17:28:02.950Z,1.27
2022-11-22T17:30:29.251Z,1.65
2022-11-22T17:32:55.584Z,2.03
2022-11-22T17:35:21.849Z,2.15
2022-11-22T17:37:48.084Z,2.17
2022-11-22T17:40:15.273Z,1.80
2022-11-22T17:42:41.616Z,2.10
2022-11-22T17:45:07.950Z,5.15
2022-11-22T17:47:35.797Z,3.33
2022-11-22T17:50:02.326Z,3.97
2022-11-22T17:52:28.657Z,6.50
2022-11-22T17:54:54.891Z,5.30
2022-11-22T17:57:21.166Z,2.38
2022-11-22T17:59:47.516Z,3.50
2022-11-22T18:02:13.792Z,3.85
2022-11-22T18:04:41.154Z,4.60
2022-11-22T18:07:07.576Z,3.50
2022-11-22T18:09:34.662Z,6.50
2022-11-22T18:12:01.104Z,14.55
2022-11-22T18:14:28.139Z,13.63
2022-11-22T18:16:54.609Z,12.60
2022-11-22T18:19:20.891Z,12.57
2022-11-22T18:21:47.184Z,14.20
2022-11-22T18:24:13.470Z,11.00
2022-11-22T18:26:41.136Z,10.38
2022-11-22T18:29:39.051Z,12.55
2022-11-22T18:34:22.320Z,11.00
2022-11-22T18:37:00.877Z,13.50
2022-11-22T18:39:28.920Z,11.85
2022-11-22T18:41:55.427Z,7.70
2022-11-22T18:44:27.041Z,9.95
2022-11-22T18:46:53.340Z,13.13
2022-11-22T18:49:19.658Z,11.13
2022-11-22T18:51:46.187Z,11.23
2022-11-22T18:54:12.659Z,11.40
2022-11-22T18:56:40.379Z,7.63
2022-11-22T18:59:07.581Z,10.93
2022-11-22T19:01:37.077Z,12.20
2022-11-22T19:04:03.981Z,9.35
2022-11-22T19:06:30.551Z,9.70
2022-11-22T19:08:56.863Z,14.88
2022-11-22T19:11:23.184Z,12.43
2022-11-22T19:13:49.512Z,10.40
2022-11-22T19:16:17.747Z,7.95
2022-11-22T19:18:44.446Z,7.78
2022-11-22T19:21:15.228Z,8.57
2022-11-22T19:23:41.848Z,8.60
2022-11-22T19:26:11.991Z,6.15
2022-11-22T19:28:38.310Z,11.32
2022-11-22T19:31:07.634Z,7.70
2022-11-22T19:33:34.177Z,11.02
2022-11-22T19:36:01.210Z,6.35
2022-11-22T19:38:28.018Z,8.10
2022-11-22T19:40:54.302Z,10.35
2022-11-22T19:43:20.836Z,6.88
2022-11-22T19:45:47.677Z,7.68
2022-11-22T19:48:14.783Z,7.63
2022-11-22T19:50:41.418Z,6.43
2022-11-22T19:53:07.902Z,7.18
2022-11-22T19:55:34.564Z,7.68
2022-11-22T19:58:00.885Z,7.60
2022-11-22T20:00:27.148Z,6.60
2022-11-22T20:02:53.618Z,8.02
2022-11-22T20:05:20.242Z,8.27
2022-11-22T20:07:46.658Z,5.30
2022-11-22T20:10:12.941Z,7.90
2022-11-22T20:12:39.212Z,7.43
2022-11-22T20:15:06.124Z,7.00
2022-11-22T20:17:32.722Z,7.30
2022-11-22T20:19:59.009Z,7.93
2022-11-22T20:22:28.117Z,5.90
2022-11-22T20:24:54.408Z,8.20
2022-11-22T20:27:24.724Z,8.27
2022-11-22T20:29:51.184Z,6.10
2022-11-22T20:32:18.101Z,8.05
2022-11-22T20:34:44.320Z,6.03
2022-11-22T20:37:10.622Z,8.30
2022-11-22T20:39:37.471Z,8.13
2022-11-22T20:42:32.431Z,6.63
2022-11-22T20:44:50.279Z,6.88
2022-11-22T20:47:16.563Z,6.05
2022-11-22T20:49:45.634Z,6.88
2022-11-22T20:52:12.112Z,6.03
2022-11-22T20:54:38.496Z,8.77
2022-11-22T20:57:04.785Z,6.88
2022-11-22T20:59:31.082Z,6.70
2022-11-22T21:01:57.382Z,7.15
2022-11-22T21:04:23.793Z,8.80
2022-11-22T21:06:50.024Z,5.85
2022-11-22T21:09:16.318Z,6.88
2022-11-22T21:11:45.326Z,3.90
2022-11-22T21:14:12.952Z,7.55
2022-11-22T21:16:39.800Z,4.60
2022-11-22T21:19:06.134Z,4.95
2022-11-22T21:21:33.448Z,6.65
2022-11-22T21:24:00.364Z,6.63
2022-11-22T21:26:27.223Z,4.38
2022-11-22T21:28:53.810Z,6.40
2022-11-22T21:31:20.680Z,7.43
2022-11-22T21:33:47.517Z,8.13
2022-11-22T21:36:13.910Z,5.88
2022-11-22T21:38:40.169Z,5.65
2022-11-22T21:41:38.071Z,4.95
2022-11-22T21:43:58.335Z,5.03
2022-11-22T21:46:25.237Z,5.50
2022-11-22T21:48:51.848Z,5.63
2022-11-22T21:51:18.254Z,3.97
2022-11-22T21:53:44.513Z,6.65
2022-11-22T21:56:10.793Z,4.70
2022-11-22T21:58:37.059Z,5.95
2022-11-22T22:01:09.586Z,5.10
2022-11-22T22:03:40.183Z,7.53
2022-11-22T22:06:06.555Z,4.05
2022-11-22T22:08:33.268Z,4.97
2022-11-22T22:11:00.978Z,4.82
2022-11-22T22:13:28.792Z,4.97
2022-11-22T22:15:56.470Z,4.72
2022-11-22T22:18:22.758Z,4.10
2022-11-22T22:20:57.965Z,6.50
2022-11-22T22:23:24.322Z,4.45
2022-11-22T22:25:50.562Z,8.27
2022-11-22T22:28:16.783Z,4.53
2022-11-22T22:30:43.059Z,3.70
2022-11-22T22:33:09.293Z,4.65
2022-11-22T22:35:35.571Z,5.03
2022-11-22T22:38:02.005Z,4.95
2022-11-22T22:40:28.263Z,5.88
2022-11-22T22:42:55.441Z,5.63
2022-11-22T22:45:21.682Z,7.63
2022-11-22T22:47:47.969Z,7.28
2022-11-22T22:50:14.521Z,3.88
2022-11-22T22:52:40.779Z,6.00
2022-11-22T22:55:07.300Z,5.30
2022-11-22T22:57:33.585Z,5.18
2022-11-22T22:59:59.969Z,5.45
2022-11-22T23:02:26.325Z,5.03
2022-11-22T23:04:52.613Z,2.72
2022-11-22T23:07:18.880Z,4.75
2022-11-22T23:09:45.386Z,5.03
2022-11-22T23:12:11.683Z,3.33
2022-11-22T23:14:41.446Z,3.60
2022-11-22T23:17:08.813Z,4.05
2022-11-22T23:19:35.238Z,5.72
2022-11-22T23:22:01.905Z,4.32
2022-11-22T23:24:32.174Z,5.93
2022-11-22T23:26:58.448Z,5.07
2022-11-22T23:29:24.679Z,5.38
2022-11-22T23:31:50.950Z,4.53
2022-11-22T23:34:17.336Z,5.25
2022-11-22T23:36:43.750Z,4.43
2022-11-22T23:39:10.059Z,5.35
2022-11-22T23:41:36.399Z,4.15
2022-11-22T23:44:03.333Z,6.45
2022-11-22T23:46:29.859Z,4.18
2022-11-22T23:48:57.375Z,4.97
2022-11-22T23:51:24.375Z,3.60
2022-11-22T23:54:10.036Z,5.25
2022-11-22T23:56:37.075Z,4.50
2022-11-22T23:59:05.049Z,5.63
